sensor_id;sensor_type;location;lat;lon;timestamp;pressure;altitude;pressure_sealevel;temperature;humidity
30730;BME280;17476;48.458;7.928;2023-11-25T00:00:48;99487.03;;;5.78;84.89
30730;BME280;17476;48.458;7.928;2023-11-25T00:03:15;99492.88;;;5.80;84.49
30730;BME280;17476;48.458;7.928;2023-11-25T00:05:41;99487.66;;;5.90;85.21
30730;BME280;17476;48.458;7.928;2023-11-25T00:08:07;99479.53;;;5.75;85.03
30730;BME280;17476;48.458;7.928;2023-11-25T00:10:34;99484.84;;;5.83;84.94
30730;BME280;17476;48.458;7.928;2023-11-25T00:13:01;99485.63;;;5.93;83.77
30730;BME280;17476;48.458;7.928;2023-11-25T00:15:27;99481.91;;;5.96;83.57
30730;BME280;17476;48.458;7.928;2023-11-25T00:17:54;99480.97;;;5.87;83.91
30730;BME280;17476;48.458;7.928;2023-11-25T00:20:22;99484.84;;;5.83;84.21
30730;BME280;17476;48.458;7.928;2023-11-25T00:22:48;99476.75;;;5.86;83.11
30730;BME280;17476;48.458;7.928;2023-11-25T00:25:14;99491.03;;;6.00;84.06
30730;BME280;17476;48.458;7.928;2023-11-25T00:27:42;99483.69;;;5.95;83.24
30730;BME280;17476;48.458;7.928;2023-11-25T00:30:09;99490.38;;;5.98;83.01
30730;BME280;17476;48.458;7.928;2023-11-25T00:32:35;99492.41;;;6.04;82.07
30730;BME280;17476;48.458;7.928;2023-11-25T00:35:05;99496.91;;;6.02;83.17
30730;BME280;17476;48.458;7.928;2023-11-25T00:37:35;99504.09;;;6.08;82.24
30730;BME280;17476;48.458;7.928;2023-11-25T00:40:02;99497.72;;;6.02;82.88
30730;BME280;17476;48.458;7.928;2023-11-25T00:42:33;99504.75;;;5.92;82.19
30730;BME280;17476;48.458;7.928;2023-11-25T00:45:00;99518.00;;;5.89;83.53
30730;BME280;17476;48.458;7.928;2023-11-25T00:47:26;99520.09;;;5.76;84.03
30730;BME280;17476;48.458;7.928;2023-11-25T00:49:53;99516.25;;;5.80;83.55
30730;BME280;17476;48.458;7.928;2023-11-25T00:52:19;99515.53;;;5.88;84.10
30730;BME280;17476;48.458;7.928;2023-11-25T00:54:45;99511.41;;;5.95;84.72
30730;BME280;17476;48.458;7.928;2023-11-25T00:57:11;99511.03;;;5.90;83.52
30730;BME280;17476;48.458;7.928;2023-11-25T00:59:37;99518.69;;;5.91;84.06
30730;BME280;17476;48.458;7.928;2023-11-25T01:02:03;99521.28;;;5.91;83.59
30730;BME280;17476;48.458;7.928;2023-11-25T01:04:29;99532.19;;;5.95;84.03
30730;BME280;17476;48.458;7.928;2023-11-25T01:06:54;99528.78;;;5.85;84.58
30730;BME280;17476;48.458;7.928;2023-11-25T01:09:20;99531.78;;;5.90;85.72
30730;BME280;17476;48.458;7.928;2023-11-25T01:11:48;99530.41;;;5.86;84.57
30730;BME280;17476;48.458;7.928;2023-11-25T01:14:14;99535.22;;;5.81;84.51
30730;BME280;17476;48.458;7.928;2023-11-25T01:16:40;99547.09;;;5.83;85.44
30730;BME280;17476;48.458;7.928;2023-11-25T01:19:06;99546.81;;;5.86;85.10
30730;BME280;17476;48.458;7.928;2023-11-25T01:21:33;99555.03;;;5.91;85.65
30730;BME280;17476;48.458;7.928;2023-11-25T01:23:59;99560.06;;;5.93;84.55
30730;BME280;17476;48.458;7.928;2023-11-25T01:26:24;99554.59;;;5.86;84.47
30730;BME280;17476;48.458;7.928;2023-11-25T01:28:50;99556.22;;;5.87;86.11
30730;BME280;17476;48.458;7.928;2023-11-25T01:31:18;99554.06;;;5.92;84.99
30730;BME280;17476;48.458;7.928;2023-11-25T01:33:43;99556.91;;;5.89;84.43
30730;BME280;17476;48.458;7.928;2023-11-25T01:36:09;99569.66;;;5.83;84.81
30730;BME280;17476;48.458;7.928;2023-11-25T01:38:36;99575.09;;;5.80;86.09
30730;BME280;17476;48.458;7.928;2023-11-25T01:41:02;99593.25;;;5.89;86.12
30730;BME280;17476;48.458;7.928;2023-11-25T01:43:32;99583.56;;;5.91;84.60
30730;BME280;17476;48.458;7.928;2023-11-25T01:46:01;99596.94;;;5.87;84.54
30730;BME280;17476;48.458;7.928;2023-11-25T01:48:28;99597.59;;;5.89;84.04
30730;BME280;17476;48.458;7.928;2023-11-25T01:50:58;99600.91;;;5.81;84.36
30730;BME280;17476;48.458;7.928;2023-11-25T01:53:25;99606.22;;;5.80;85.10
30730;BME280;17476;48.458;7.928;2023-11-25T01:55:56;99614.31;;;5.77;84.84
30730;BME280;17476;48.458;7.928;2023-11-25T01:58:23;99607.19;;;5.69;85.95
30730;BME280;17476;48.458;7.928;2023-11-25T02:00:49;99611.06;;;5.65;86.40
30730;BME280;17476;48.458;7.928;2023-11-25T02:03:16;99622.91;;;5.67;85.63
30730;BME280;17476;48.458;7.928;2023-11-25T02:05:46;99616.50;;;5.62;86.54
30730;BME280;17476;48.458;7.928;2023-11-25T02:08:12;99614.16;;;5.68;85.93
30730;BME280;17476;48.458;7.928;2023-11-25T02:10:39;99605.00;;;5.74;85.35
30730;BME280;17476;48.458;7.928;2023-11-25T02:13:08;99616.75;;;5.68;86.27
30730;BME280;17476;48.458;7.928;2023-11-25T02:15:36;99621.13;;;5.68;86.13
30730;BME280;17476;48.458;7.928;2023-11-25T02:18:02;99618.72;;;5.57;86.96
30730;BME280;17476;48.458;7.928;2023-11-25T02:20:37;99613.53;;;5.57;86.77
30730;BME280;17476;48.458;7.928;2023-11-25T02:23:19;99628.28;;;5.56;86.47
30730;BME280;17476;48.458;7.928;2023-11-25T02:25:50;99629.50;;;5.52;86.71
30730;BME280;17476;48.458;7.928;2023-11-25T02:28:17;99632.66;;;5.56;87.68
30730;BME280;17476;48.458;7.928;2023-11-25T02:30:52;99635.09;;;5.57;88.03
30730;BME280;17476;48.458;7.928;2023-11-25T02:33:18;99625.81;;;5.55;87.54
30730;BME280;17476;48.458;7.928;2023-11-25T02:35:45;99630.47;;;5.41;87.73
30730;BME280;17476;48.458;7.928;2023-11-25T02:38:12;99631.84;;;5.36;87.77
30730;BME280;17476;48.458;7.928;2023-11-25T02:40:44;99634.56;;;5.34;87.81
30730;BME280;17476;48.458;7.928;2023-11-25T02:43:13;99634.28;;;5.28;88.60
30730;BME280;17476;48.458;7.928;2023-11-25T02:45:39;99635.69;;;5.22;87.86
30730;BME280;17476;48.458;7.928;2023-11-25T02:48:06;99638.38;;;5.20;87.18
30730;BME280;17476;48.458;7.928;2023-11-25T02:50:32;99640.59;;;5.15;88.13
30730;BME280;17476;48.458;7.928;2023-11-25T02:53:01;99637.59;;;5.10;88.31
30730;BME280;17476;48.458;7.928;2023-11-25T02:55:27;99642.19;;;5.07;89.12
30730;BME280;17476;48.458;7.928;2023-11-25T02:57:53;99627.19;;;5.01;88.06
30730;BME280;17476;48.458;7.928;2023-11-25T03:00:19;99638.66;;;4.98;89.02
30730;BME280;17476;48.458;7.928;2023-11-25T03:02:48;99633.75;;;4.95;88.50
30730;BME280;17476;48.458;7.928;2023-11-25T03:05:15;99641.94;;;4.90;89.09
30730;BME280;17476;48.458;7.928;2023-11-25T03:07:42;99638.78;;;4.87;89.29
30730;BME280;17476;48.458;7.928;2023-11-25T03:10:08;99644.38;;;4.82;89.22
30730;BME280;17476;48.458;7.928;2023-11-25T03:12:35;99644.25;;;4.84;89.46
30730;BME280;17476;48.458;7.928;2023-11-25T03:15:01;99648.31;;;4.86;89.49
30730;BME280;17476;48.458;7.928;2023-11-25T03:17:28;99646.81;;;4.84;89.24
30730;BME280;17476;48.458;7.928;2023-11-25T03:19:55;99658.16;;;4.83;89.91
30730;BME280;17476;48.458;7.928;2023-11-25T03:22:20;99659.91;;;4.82;89.56
30730;BME280;17476;48.458;7.928;2023-11-25T03:24:47;99669.31;;;4.83;89.27
30730;BME280;17476;48.458;7.928;2023-11-25T03:27:15;99665.09;;;4.82;89.60
30730;BME280;17476;48.458;7.928;2023-11-25T03:29:41;99664.53;;;4.79;89.46
30730;BME280;17476;48.458;7.928;2023-11-25T03:32:07;99670.66;;;4.78;89.70
30730;BME280;17476;48.458;7.928;2023-11-25T03:34:33;99679.00;;;4.81;90.03
30730;BME280;17476;48.458;7.928;2023-11-25T03:36:59;99689.91;;;4.75;90.24
30730;BME280;17476;48.458;7.928;2023-11-25T03:39:24;99684.00;;;4.73;90.50
30730;BME280;17476;48.458;7.928;2023-11-25T03:41:52;99697.66;;;4.75;91.34
30730;BME280;17476;48.458;7.928;2023-11-25T03:44:18;99700.81;;;4.79;91.30
30730;BME280;17476;48.458;7.928;2023-11-25T03:46:44;99697.53;;;4.86;90.78
30730;BME280;17476;48.458;7.928;2023-11-25T03:49:10;99705.31;;;4.86;91.60
30730;BME280;17476;48.458;7.928;2023-11-25T03:51:36;99714.31;;;4.82;91.07
30730;BME280;17476;48.458;7.928;2023-11-25T03:54:01;99725.50;;;4.83;92.31
30730;BME280;17476;48.458;7.928;2023-11-25T03:56:27;99712.56;;;4.92;92.24
30730;BME280;17476;48.458;7.928;2023-11-25T03:58:53;99717.34;;;4.97;92.20
30730;BME280;17476;48.458;7.928;2023-11-25T04:01:20;99710.41;;;4.98;92.37
30730;BME280;17476;48.458;7.928;2023-11-25T04:03:46;99724.75;;;5.02;91.55
30730;BME280;17476;48.458;7.928;2023-11-25T04:06:13;99717.94;;;5.10;92.02
30730;BME280;17476;48.458;7.928;2023-11-25T04:08:39;99714.94;;;5.15;92.49
30730;BME280;17476;48.458;7.928;2023-11-25T04:11:05;99718.88;;;5.19;91.43
30730;BME280;17476;48.458;7.928;2023-11-25T04:13:31;99718.47;;;5.14;90.30
30730;BME280;17476;48.458;7.928;2023-11-25T04:15:57;99725.28;;;5.05;90.15
30730;BME280;17476;48.458;7.928;2023-11-25T04:18:26;99727.34;;;5.02;90.66
30730;BME280;17476;48.458;7.928;2023-11-25T04:20:52;99739.34;;;5.03;91.18
30730;BME280;17476;48.458;7.928;2023-11-25T04:23:19;99730.84;;;5.01;91.46
30730;BME280;17476;48.458;7.928;2023-11-25T04:25:44;99734.69;;;4.97;91.09
30730;BME280;17476;48.458;7.928;2023-11-25T04:28:11;99737.13;;;4.98;91.91
30730;BME280;17476;48.458;7.928;2023-11-25T04:30:40;99743.66;;;4.92;91.38
30730;BME280;17476;48.458;7.928;2023-11-25T04:33:09;99740.53;;;4.89;91.73
30730;BME280;17476;48.458;7.928;2023-11-25T04:35:36;99738.03;;;4.87;91.40
30730;BME280;17476;48.458;7.928;2023-11-25T04:38:05;99745.00;;;4.87;90.81
30730;BME280;17476;48.458;7.928;2023-11-25T04:40:31;99744.59;;;4.82;90.91
30730;BME280;17476;48.458;7.928;2023-11-25T04:42:57;99739.28;;;4.83;91.55
30730;BME280;17476;48.458;7.928;2023-11-25T04:45:24;99752.75;;;4.77;91.06
30730;BME280;17476;48.458;7.928;2023-11-25T04:47:51;99740.34;;;4.81;90.77
30730;BME280;17476;48.458;7.928;2023-11-25T04:50:18;99743.50;;;4.84;91.00
30730;BME280;17476;48.458;7.928;2023-11-25T04:52:46;99754.13;;;4.81;91.25
30730;BME280;17476;48.458;7.928;2023-11-25T04:55:12;99751.25;;;4.75;90.94
30730;BME280;17476;48.458;7.928;2023-11-25T04:57:38;99756.69;;;4.72;90.36
30730;BME280;17476;48.458;7.928;2023-11-25T05:00:05;99758.88;;;4.76;90.59
30730;BME280;17476;48.458;7.928;2023-11-25T05:02:40;99760.53;;;4.77;90.79
30730;BME280;17476;48.458;7.928;2023-11-25T05:05:08;99762.53;;;4.74;90.17
30730;BME280;17476;48.458;7.928;2023-11-25T05:07:35;99760.53;;;4.77;90.53
30730;BME280;17476;48.458;7.928;2023-11-25T05:10:02;99757.78;;;4.79;90.20
30730;BME280;17476;48.458;7.928;2023-11-25T05:12:30;99755.34;;;4.77;89.47
30730;BME280;17476;48.458;7.928;2023-11-25T05:14:56;99751.94;;;4.77;90.35
30730;BME280;17476;48.458;7.928;2023-11-25T05:17:22;99752.06;;;4.75;90.33
30730;BME280;17476;48.458;7.928;2023-11-25T05:19:48;99753.03;;;4.74;90.45
30730;BME280;17476;48.458;7.928;2023-11-25T05:22:14;99751.50;;;4.72;91.08
30730;BME280;17476;48.458;7.928;2023-11-25T05:24:40;99754.34;;;4.69;91.14
30730;BME280;17476;48.458;7.928;2023-11-25T05:27:05;99758.81;;;4.66;90.92
30730;BME280;17476;48.458;7.928;2023-11-25T05:29:32;99761.00;;;4.61;90.71
30730;BME280;17476;48.458;7.928;2023-11-25T05:31:58;99760.31;;;4.59;91.29
30730;BME280;17476;48.458;7.928;2023-11-25T05:34:24;99755.53;;;4.55;91.00
30730;BME280;17476;48.458;7.928;2023-11-25T05:36:50;99749.78;;;4.51;91.77
30730;BME280;17476;48.458;7.928;2023-11-25T05:39:16;99751.94;;;4.46;91.80
30730;BME280;17476;48.458;7.928;2023-11-25T05:41:47;99743.75;;;4.41;92.14
30730;BME280;17476;48.458;7.928;2023-11-25T05:44:14;99747.81;;;4.34;91.69
30730;BME280;17476;48.458;7.928;2023-11-25T05:46:40;99750.06;;;4.27;92.06
30730;BME280;17476;48.458;7.928;2023-11-25T05:49:06;99752.91;;;4.24;92.94
30730;BME280;17476;48.458;7.928;2023-11-25T05:51:36;99756.13;;;4.17;93.23
30730;BME280;17476;48.458;7.928;2023-11-25T05:54:08;99749.69;;;4.11;93.66
30730;BME280;17476;48.458;7.928;2023-11-25T05:56:34;99754.22;;;3.77;94.54
30730;BME280;17476;48.458;7.928;2023-11-25T05:59:00;99762.41;;;3.61;96.28
30730;BME280;17476;48.458;7.928;2023-11-25T06:01:27;99757.97;;;3.52;96.26
30730;BME280;17476;48.458;7.928;2023-11-25T06:03:53;99769.25;;;3.51;97.70
30730;BME280;17476;48.458;7.928;2023-11-25T06:06:20;99778.22;;;3.47;97.62
30730;BME280;17476;48.458;7.928;2023-11-25T06:08:50;99774.53;;;3.61;97.21
30730;BME280;17476;48.458;7.928;2023-11-25T06:11:24;99771.78;;;3.73;99.10
30730;BME280;17476;48.458;7.928;2023-11-25T06:13:55;99777.59;;;3.87;98.94
30730;BME280;17476;48.458;7.928;2023-11-25T06:16:22;99775.75;;;3.98;99.32
30730;BME280;17476;48.458;7.928;2023-11-25T06:18:49;99765.22;;;4.11;98.98
30730;BME280;17476;48.458;7.928;2023-11-25T06:21:15;99769.38;;;4.23;99.34
30730;BME280;17476;48.458;7.928;2023-11-25T06:23:41;99771.97;;;4.23;98.46
30730;BME280;17476;48.458;7.928;2023-11-25T06:26:10;99778.41;;;4.29;98.68
30730;BME280;17476;48.458;7.928;2023-11-25T06:28:43;99781.00;;;4.29;98.09
30730;BME280;17476;48.458;7.928;2023-11-25T06:31:13;99792.69;;;4.23;97.97
30730;BME280;17476;48.458;7.928;2023-11-25T06:33:40;99790.28;;;4.10;98.38
30730;BME280;17476;48.458;7.928;2023-11-25T06:36:08;99791.03;;;4.22;99.86
30730;BME280;17476;48.458;7.928;2023-11-25T06:38:34;99789.00;;;4.26;99.03
30730;BME280;17476;48.458;7.928;2023-11-25T06:41:00;99787.69;;;4.31;98.89
30730;BME280;17476;48.458;7.928;2023-11-25T06:43:27;99788.50;;;4.32;98.04
30730;BME280;17476;48.458;7.928;2023-11-25T06:45:53;99791.66;;;4.35;97.98
30730;BME280;17476;48.458;7.928;2023-11-25T06:48:20;99791.66;;;4.35;97.70
30730;BME280;17476;48.458;7.928;2023-11-25T06:50:50;99786.50;;;4.35;97.47
30730;BME280;17476;48.458;7.928;2023-11-25T06:53:16;99791.34;;;4.29;97.68
30730;BME280;17476;48.458;7.928;2023-11-25T06:55:42;99787.31;;;4.36;97.14
30730;BME280;17476;48.458;7.928;2023-11-25T06:58:09;99795.44;;;4.31;96.46
30730;BME280;17476;48.458;7.928;2023-11-25T07:00:37;99789.47;;;4.31;96.81
30730;BME280;17476;48.458;7.928;2023-11-25T07:03:03;99792.50;;;4.36;97.24
30730;BME280;17476;48.458;7.928;2023-11-25T07:05:30;99795.63;;;4.39;96.59
30730;BME280;17476;48.458;7.928;2023-11-25T07:07:56;99805.47;;;4.46;96.56
30730;BME280;17476;48.458;7.928;2023-11-25T07:10:22;99817.09;;;4.51;96.34
30730;BME280;17476;48.458;7.928;2023-11-25T07:12:48;99809.91;;;4.55;96.45
30730;BME280;17476;48.458;7.928;2023-11-25T07:15:13;99817.47;;;4.47;95.31
30730;BME280;17476;48.458;7.928;2023-11-25T07:17:40;99828.28;;;4.52;95.63
30730;BME280;17476;48.458;7.928;2023-11-25T07:20:07;99815.47;;;4.50;96.49
30730;BME280;17476;48.458;7.928;2023-11-25T07:22:41;99818.22;;;4.58;96.65
30730;BME280;17476;48.458;7.928;2023-11-25T07:25:07;99817.03;;;4.62;95.78
30730;BME280;17476;48.458;7.928;2023-11-25T07:27:39;99816.25;;;4.72;96.84
30730;BME280;17476;48.458;7.928;2023-11-25T07:30:07;99816.81;;;4.75;96.73
30730;BME280;17476;48.458;7.928;2023-11-25T07:32:35;99821.44;;;4.72;95.64
30730;BME280;17476;48.458;7.928;2023-11-25T07:35:01;99818.59;;;4.54;96.83
30730;BME280;17476;48.458;7.928;2023-11-25T07:37:31;99821.28;;;4.43;96.53
30730;BME280;17476;48.458;7.928;2023-11-25T07:39:57;99819.31;;;4.56;97.46
30730;BME280;17476;48.458;7.928;2023-11-25T07:42:23;99826.16;;;4.66;96.96
30730;BME280;17476;48.458;7.928;2023-11-25T07:44:49;99834.81;;;4.77;97.28
30730;BME280;17476;48.458;7.928;2023-11-25T07:47:16;99828.69;;;4.78;96.91
30730;BME280;17476;48.458;7.928;2023-11-25T07:49:42;99835.56;;;4.88;97.29
30730;BME280;17476;48.458;7.928;2023-11-25T07:52:08;99829.59;;;4.98;96.39
30730;BME280;17476;48.458;7.928;2023-11-25T07:54:34;99830.28;;;5.00;95.94
30730;BME280;17476;48.458;7.928;2023-11-25T07:56:59;99827.56;;;5.01;96.64
30730;BME280;17476;48.458;7.928;2023-11-25T07:59:26;99835.66;;;4.87;95.94
30730;BME280;17476;48.458;7.928;2023-11-25T08:01:53;99832.97;;;4.88;97.05
30730;BME280;17476;48.458;7.928;2023-11-25T08:04:22;99836.50;;;4.87;96.69
30730;BME280;17476;48.458;7.928;2023-11-25T08:06:48;99834.84;;;4.86;96.99
30730;BME280;17476;48.458;7.928;2023-11-25T08:09:15;99835.81;;;4.85;97.95
30730;BME280;17476;48.458;7.928;2023-11-25T08:11:40;99838.06;;;5.00;98.80
30730;BME280;17476;48.458;7.928;2023-11-25T08:14:06;99839.66;;;5.22;97.76
30730;BME280;17476;48.458;7.928;2023-11-25T08:16:32;99832.84;;;5.30;94.84
30730;BME280;17476;48.458;7.928;2023-11-25T08:18:58;99836.31;;;5.50;96.13
30730;BME280;17476;48.458;7.928;2023-11-25T08:21:24;99847.66;;;5.59;94.59
30730;BME280;17476;48.458;7.928;2023-11-25T08:23:49;99852.97;;;5.67;94.94
30730;BME280;17476;48.458;7.928;2023-11-25T08:26:23;99850.53;;;5.75;93.82
30730;BME280;17476;48.458;7.928;2023-11-25T08:28:52;99846.44;;;5.82;93.44
30730;BME280;17476;48.458;7.928;2023-11-25T08:31:19;99857.09;;;5.89;91.88
30730;BME280;17476;48.458;7.928;2023-11-25T08:33:46;99852.66;;;5.91;90.79
30730;BME280;17476;48.458;7.928;2023-11-25T08:36:13;99842.66;;;5.96;91.20
30730;BME280;17476;48.458;7.928;2023-11-25T08:38:40;99845.41;;;6.04;90.52
30730;BME280;17476;48.458;7.928;2023-11-25T08:41:06;99855.25;;;6.10;89.97
30730;BME280;17476;48.458;7.928;2023-11-25T08:43:39;99854.28;;;6.31;91.38
30730;BME280;17476;48.458;7.928;2023-11-25T08:46:06;99849.47;;;6.45;87.74
30730;BME280;17476;48.458;7.928;2023-11-25T08:48:32;99842.63;;;6.54;86.69
30730;BME280;17476;48.458;7.928;2023-11-25T08:50:58;99849.31;;;6.56;84.98
30730;BME280;17476;48.458;7.928;2023-11-25T08:53:24;99850.00;;;6.59;84.40
30730;BME280;17476;48.458;7.928;2023-11-25T08:55:50;99845.47;;;6.61;84.07
30730;BME280;17476;48.458;7.928;2023-11-25T08:58:16;99853.84;;;6.45;83.15
30730;BME280;17476;48.458;7.928;2023-11-25T09:00:42;99846.72;;;6.47;81.80
30730;BME280;17476;48.458;7.928;2023-11-25T09:03:09;99846.44;;;6.50;83.01
30730;BME280;17476;48.458;7.928;2023-11-25T09:05:36;99851.25;;;6.35;81.46
30730;BME280;17476;48.458;7.928;2023-11-25T09:08:06;99859.03;;;6.45;81.91
30730;BME280;17476;48.458;7.928;2023-11-25T09:10:35;99864.25;;;6.45;81.45
30730;BME280;17476;48.458;7.928;2023-11-25T09:13:02;99862.88;;;6.41;83.43
30730;BME280;17476;48.458;7.928;2023-11-25T09:15:28;99867.44;;;6.76;82.61
30730;BME280;17476;48.458;7.928;2023-11-25T09:17:54;99866.53;;;6.67;83.43
30730;BME280;17476;48.458;7.928;2023-11-25T09:20:20;99864.19;;;6.74;80.72
30730;BME280;17476;48.458;7.928;2023-11-25T09:22:50;99865.81;;;6.84;82.79
30730;BME280;17476;48.458;7.928;2023-11-25T09:25:17;99873.06;;;6.81;80.92
30730;BME280;17476;48.458;7.928;2023-11-25T09:27:43;99870.03;;;6.76;84.42
30730;BME280;17476;48.458;7.928;2023-11-25T09:30:14;99873.50;;;7.14;82.12
30730;BME280;17476;48.458;7.928;2023-11-25T09:32:43;99872.78;;;7.21;81.85
30730;BME280;17476;48.458;7.928;2023-11-25T09:35:11;99869.53;;;7.09;82.39
30730;BME280;17476;48.458;7.928;2023-11-25T09:37:38;99871.06;;;7.02;81.89
30730;BME280;17476;48.458;7.928;2023-11-25T09:40:05;99893.38;;;7.05;81.67
30730;BME280;17476;48.458;7.928;2023-11-25T09:42:32;99885.28;;;7.45;82.88
30730;BME280;17476;48.458;7.928;2023-11-25T09:45:00;99881.88;;;7.62;81.13
30730;BME280;17476;48.458;7.928;2023-11-25T09:47:26;99866.59;;;7.95;79.17
30730;BME280;17476;48.458;7.928;2023-11-25T09:49:52;99858.03;;;7.85;79.36
30730;BME280;17476;48.458;7.928;2023-11-25T09:52:19;99852.59;;;7.96;79.24
30730;BME280;17476;48.458;7.928;2023-11-25T09:54:46;99856.63;;;7.90;75.34
30730;BME280;17476;48.458;7.928;2023-11-25T09:57:20;99869.88;;;7.79;75.75
30730;BME280;17476;48.458;7.928;2023-11-25T09:59:47;99865.84;;;7.67;76.00
30730;BME280;17476;48.458;7.928;2023-11-25T10:02:16;99858.25;;;8.09;75.23
30730;BME280;17476;48.458;7.928;2023-11-25T10:04:43;99852.66;;;8.40;73.24
30730;BME280;17476;48.458;7.928;2023-11-25T10:07:12;99855.03;;;8.51;69.05
30730;BME280;17476;48.458;7.928;2023-11-25T10:09:39;99850.13;;;7.77;72.96
30730;BME280;17476;48.458;7.928;2023-11-25T10:12:08;99839.22;;;7.91;70.98
30730;BME280;17476;48.458;7.928;2023-11-25T10:14:42;99837.88;;;7.69;72.86
30730;BME280;17476;48.458;7.928;2023-11-25T10:17:19;99831.88;;;7.86;74.59
30730;BME280;17476;48.458;7.928;2023-11-25T10:19:46;99830.44;;;8.10;73.65
30730;BME280;17476;48.458;7.928;2023-11-25T10:22:13;99829.84;;;7.98;73.16
30730;BME280;17476;48.458;7.928;2023-11-25T10:24:48;99826.31;;;8.25;72.28
30730;BME280;17476;48.458;7.928;2023-11-25T10:27:19;99821.56;;;8.90;70.99
30730;BME280;17476;48.458;7.928;2023-11-25T10:29:48;99825.41;;;9.79;69.44
30730;BME280;17476;48.458;7.928;2023-11-25T10:32:15;99816.97;;;10.18;67.45
30730;BME280;17476;48.458;7.928;2023-11-25T10:34:41;99819.38;;;9.70;65.29
30730;BME280;17476;48.458;7.928;2023-11-25T10:37:08;99823.63;;;9.71;66.73
30730;BME280;17476;48.458;7.928;2023-11-25T10:39:35;99820.66;;;9.58;65.42
30730;BME280;17476;48.458;7.928;2023-11-25T10:42:03;99820.28;;;9.45;67.15
30730;BME280;17476;48.458;7.928;2023-11-25T10:44:34;99809.28;;;9.25;66.59
30730;BME280;17476;48.458;7.928;2023-11-25T10:47:00;99813.66;;;9.08;66.98
30730;BME280;17476;48.458;7.928;2023-11-25T10:49:33;99811.41;;;8.87;68.39
30730;BME280;17476;48.458;7.928;2023-11-25T10:52:03;99804.84;;;8.75;68.49
30730;BME280;17476;48.458;7.928;2023-11-25T10:54:33;99803.84;;;8.68;68.60
30730;BME280;17476;48.458;7.928;2023-11-25T10:57:02;99797.41;;;8.54;67.56
30730;BME280;17476;48.458;7.928;2023-11-25T10:59:34;99794.94;;;8.53;69.06
30730;BME280;17476;48.458;7.928;2023-11-25T11:02:03;99805.22;;;8.54;69.24
30730;BME280;17476;48.458;7.928;2023-11-25T11:04:41;99803.94;;;8.58;68.13
30730;BME280;17476;48.458;7.928;2023-11-25T11:07:15;99797.44;;;8.62;68.46
30730;BME280;17476;48.458;7.928;2023-11-25T11:09:42;99810.94;;;8.58;68.16
30730;BME280;17476;48.458;7.928;2023-11-25T11:12:37;99799.50;;;8.33;69.45
30730;BME280;17476;48.458;7.928;2023-11-25T11:15:05;99796.34;;;8.21;70.78
30730;BME280;17476;48.458;7.928;2023-11-25T11:18:25;99787.50;;;7.78;73.22
30730;BME280;17476;48.458;7.928;2023-11-25T11:20:51;99793.53;;;7.79;72.33
30730;BME280;17476;48.458;7.928;2023-11-25T11:23:21;99786.41;;;7.81;73.41
30730;BME280;17476;48.458;7.928;2023-11-25T11:26:19;99785.44;;;7.82;72.13
30730;BME280;17476;48.458;7.928;2023-11-25T11:29:17;99779.91;;;7.85;71.32
30730;BME280;17476;48.458;7.928;2023-11-25T11:32:06;99772.94;;;7.85;71.36
30730;BME280;17476;48.458;7.928;2023-11-25T11:34:34;99774.66;;;7.94;71.27
30730;BME280;17476;48.458;7.928;2023-11-25T11:37:02;99768.78;;;7.92;71.01
30730;BME280;17476;48.458;7.928;2023-11-25T11:47:24;99753.16;;;8.18;70.01
30730;BME280;17476;48.458;7.928;2023-11-25T11:49:51;99751.44;;;8.27;69.24
30730;BME280;17476;48.458;7.928;2023-11-25T11:52:18;99756.75;;;8.17;70.29
30730;BME280;17476;48.458;7.928;2023-11-25T11:54:44;99753.06;;;8.28;70.30
30730;BME280;17476;48.458;7.928;2023-11-25T11:57:10;99752.47;;;8.34;68.77
30730;BME280;17476;48.458;7.928;2023-11-25T12:00:05;99758.13;;;8.30;69.35
30730;BME280;17476;48.458;7.928;2023-11-25T12:02:50;99755.59;;;8.38;69.57
30730;BME280;17476;48.458;7.928;2023-11-25T12:05:16;99758.28;;;8.28;68.56
30730;BME280;17476;48.458;7.928;2023-11-25T12:07:42;99755.06;;;8.08;69.20
30730;BME280;17476;48.458;7.928;2023-11-25T12:10:08;99750.75;;;7.99;68.24
30730;BME280;17476;48.458;7.928;2023-11-25T12:12:40;99748.41;;;7.88;69.87
30730;BME280;17476;48.458;7.928;2023-11-25T12:15:07;99743.94;;;7.80;70.51
30730;BME280;17476;48.458;7.928;2023-11-25T12:17:37;99755.25;;;7.71;71.68
30730;BME280;17476;48.458;7.928;2023-11-25T12:20:08;99736.59;;;7.76;70.69
30730;BME280;17476;48.458;7.928;2023-11-25T12:22:38;99745.03;;;7.78;70.62
30730;BME280;17476;48.458;7.928;2023-11-25T12:25:04;99739.72;;;7.79;70.15
30730;BME280;17476;48.458;7.928;2023-11-25T12:27:31;99740.09;;;7.66;72.23
30730;BME280;17476;48.458;7.928;2023-11-25T12:29:59;99744.03;;;7.35;72.55
30730;BME280;17476;48.458;7.928;2023-11-25T12:32:25;99737.47;;;7.49;74.50
30730;BME280;17476;48.458;7.928;2023-11-25T12:34:50;99722.91;;;7.56;74.81
30730;BME280;17476;48.458;7.928;2023-11-25T12:37:16;99722.63;;;7.41;73.49
30730;BME280;17476;48.458;7.928;2023-11-25T12:39:42;99718.53;;;7.21;73.66
30730;BME280;17476;48.458;7.928;2023-11-25T12:42:09;99719.22;;;6.95;76.50
30730;BME280;17476;48.458;7.928;2023-11-25T12:44:51;99710.44;;;6.96;77.22
30730;BME280;17476;48.458;7.928;2023-11-25T12:47:19;99717.97;;;6.99;78.61
30730;BME280;17476;48.458;7.928;2023-11-25T12:49:45;99713.88;;;6.97;77.91
30730;BME280;17476;48.458;7.928;2023-11-25T12:52:21;99716.59;;;7.05;78.94
30730;BME280;17476;48.458;7.928;2023-11-25T12:54:49;99716.84;;;7.02;78.06
30730;BME280;17476;48.458;7.928;2023-11-25T12:57:15;99713.69;;;7.08;77.65
30730;BME280;17476;48.458;7.928;2023-11-25T12:59:43;99708.53;;;6.98;77.50
30730;BME280;17476;48.458;7.928;2023-11-25T13:02:12;99712.16;;;6.88;78.90
30730;BME280;17476;48.458;7.928;2023-11-25T13:04:46;99711.81;;;6.73;79.38
30730;BME280;17476;48.458;7.928;2023-11-25T13:09:54;99705.72;;;6.64;79.67
30730;BME280;17476;48.458;7.928;2023-11-25T13:12:20;99707.09;;;6.59;80.29
30730;BME280;17476;48.458;7.928;2023-11-25T13:14:46;99706.97;;;6.60;81.11
30730;BME280;17476;48.458;7.928;2023-11-25T13:17:12;99696.00;;;6.66;81.20
30730;BME280;17476;48.458;7.928;2023-11-25T13:19:40;99695.94;;;6.76;79.63
30730;BME280;17476;48.458;7.928;2023-11-25T13:22:06;99694.97;;;6.77;79.13
30730;BME280;17476;48.458;7.928;2023-11-25T13:24:32;99699.81;;;6.62;82.25